Time;durP1;ratioP1;P1;durP2;ratioP2;P2;SDS_P1;SDS_P2;PMS_P1;PMS_P2;Temp;Humidity;BMP_temperature;BMP_pressure;BME280_temperature;BME280_humidity;BME280_pressure;Samples;Min_cycle;Max_cycle;Signal;HPM_P1;HPM_P2
2023/01/18 00:01:38;;;;;;;;;;;17.70;89.90;;;;;;5094159;28;19915;-51
2023/01/18 00:04:03;;;;;;;;;;;17.70;90.00;;;;;;5093801;28;20003;-49
2023/01/18 00:06:29;;;;;;;;;;;17.70;90.00;;;;;;5094063;28;19908;-48
2023/01/18 00:08:54;;;;;;;;;;;17.70;89.90;;;;;;5093636;28;19912;-50
2023/01/18 00:11:20;;;;;;;;;;;17.70;90.00;;;;;;5093775;28;19912;-48
2023/01/18 00:13:46;;;;;;;;;;;17.70;89.90;;;;;;5093400;28;20378;-53
2023/01/18 00:16:11;;;;;;;;;;;17.70;89.90;;;;;;5093749;28;19923;-50
2023/01/18 00:18:37;;;;;;;;;;;17.70;89.90;;;;;;5093402;28;19908;-51
2023/01/18 00:21:04;;;;;;;;;;;17.70;89.90;;;;;;5093322;28;19912;-52
2023/01/18 00:23:29;;;;;;;;;;;17.70;89.90;;;;;;5093284;28;19908;-50
2023/01/18 00:26:01;;;;;;;;;;;17.70;90.00;;;;;;5093546;28;20010;-48
2023/01/18 00:28:27;;;;;;;;;;;17.70;90.00;;;;;;5095392;28;19915;-52
2023/01/18 00:30:53;;;;;;;;;;;17.70;90.00;;;;;;5097007;28;19912;-50
2023/01/18 00:33:18;;;;;;;;;;;17.60;90.00;;;;;;5097018;28;19916;-52
2023/01/18 00:35:53;;;;;;;;;;;17.60;90.00;;;;;;5096747;28;19922;-51
2023/01/18 00:38:18;;;;;;;;;;;17.60;90.00;;;;;;5096828;28;19909;-50
2023/01/18 00:40:44;;;;;;;;;;;17.60;90.10;;;;;;5097382;28;19934;-51
2023/01/18 00:45:53;;;;;;;;;;;17.60;90.10;;;;;;5097004;28;19977;-48
2023/01/18 00:48:18;;;;;;;;;;;17.60;90.20;;;;;;5096811;28;20339;-49
2023/01/18 00:50:44;;;;;;;;;;;17.60;90.20;;;;;;5078766;28;19963;-49
2023/01/18 00:53:09;;;;;;;;;;;17.60;90.20;;;;;;5096776;28;19908;-48
2023/01/18 00:55:35;;;;;;;;;;;17.60;90.20;;;;;;5096248;28;19912;-49
2023/01/18 00:58:00;;;;;;;;;;;17.60;90.20;;;;;;5099276;28;19916;-49
2023/01/18 01:00:26;;;;;;;;;;;17.60;90.30;;;;;;5097278;28;20385;-48
2023/01/18 01:02:51;;;;;;;;;;;17.70;90.30;;;;;;5097326;28;19943;-51
2023/01/18 01:08:02;;;;;;;;;;;17.60;90.20;;;;;;5095649;28;19927;-49
2023/01/18 01:10:28;;;;;;;;;;;17.70;90.20;;;;;;5094901;28;19955;-49
2023/01/18 01:26:34;;;;;;;;;;;17.60;90.10;;;;;;5094200;28;19920;-49
2023/01/18 01:28:59;;;;;;;;;;;17.60;90.20;;;;;;5094310;28;19915;-49
2023/01/18 01:31:25;;;;;;;;;;;17.60;90.20;;;;;;5094653;28;19916;-46
2023/01/18 01:33:50;;;;;;;;;;;17.60;90.20;;;;;;5094467;28;19919;-49
2023/01/18 01:36:18;;;;;;;;;;;17.60;90.20;;;;;;5094327;28;19927;-51
2023/01/18 01:38:43;;;;;;;;;;;17.60;90.20;;;;;;5094237;28;19919;-50
2023/01/18 01:41:16;;;;;;;;;;;17.60;90.20;;;;;;5089773;28;19912;-53
2023/01/18 01:43:45;;;;;;;;;;;17.60;90.20;;;;;;5094372;28;19912;-53
2023/01/18 01:46:24;;;;;;;;;;;17.60;90.20;;;;;;5091068;28;19912;-49
2023/01/18 01:48:53;;;;;;;;;;;17.60;90.20;;;;;;5097123;28;19964;-50
2023/01/18 01:51:18;;;;;;;;;;;17.60;90.20;;;;;;5112000;28;19916;-50
2023/01/18 01:53:45;;;;;;;;;;;17.60;90.20;;;;;;5115714;28;19908;-50
2023/01/18 01:56:11;;;;;;;;;;;17.60;90.20;;;;;;5085635;28;19961;-48
2023/01/18 01:58:37;;;;;;;;;;;17.60;90.20;;;;;;5095406;28;19987;-48
2023/01/18 02:01:03;;;;;;;;;;;17.60;90.10;;;;;;5095593;28;19912;-49
2023/01/18 02:03:29;;;;;;;;;;;17.60;90.10;;;;;;5095299;28;19915;-52
2023/01/18 02:06:00;;;;;;;;;;;17.60;90.10;;;;;;5095080;28;19915;-48
2023/01/18 02:08:26;;;;;;;;;;;17.60;90.10;;;;;;5095202;28;19915;-49
2023/01/18 02:10:52;;;;;;;;;;;17.60;90.20;;;;;;5095570;28;20019;-47
2023/01/18 02:13:19;;;;;;;;;;;17.60;90.10;;;;;;5094874;28;19948;-50
2023/01/18 02:15:49;;;;;;;;;;;17.60;90.20;;;;;;5095128;28;19912;-49
2023/01/18 02:18:23;;;;;;;;;;;17.50;90.20;;;;;;5094305;28;20355;-49
2023/01/18 02:21:02;;;;;;;;;;;17.60;90.20;;;;;;5093559;28;20006;-49
2023/01/18 02:23:33;;;;;;;;;;;17.60;90.20;;;;;;5074881;28;20347;-50
2023/01/18 02:26:08;;;;;;;;;;;17.50;90.20;;;;;;5094454;28;20278;-48
2023/01/18 02:28:38;;;;;;;;;;;17.60;90.20;;;;;;5094939;28;20002;-47
2023/01/18 02:31:24;;;;;;;;;;;17.50;90.20;;;;;;5094626;28;20162;-49
2023/01/18 02:34:02;;;;;;;;;;;17.50;90.30;;;;;;5094890;28;19908;-47
2023/01/18 02:36:38;;;;;;;;;;;17.50;90.30;;;;;;5076484;28;20285;-50
2023/01/18 02:39:12;;;;;;;;;;;17.50;90.20;;;;;;5094966;28;19943;-51
2023/01/18 02:47:13;;;;;;;;;;;17.50;90.20;;;;;;5094761;28;19946;-50
2023/01/18 02:49:38;;;;;;;;;;;17.50;90.10;;;;;;5094575;28;19959;-50
2023/01/18 02:52:04;;;;;;;;;;;17.60;90.10;;;;;;5094475;28;19912;-50
2023/01/18 02:54:31;;;;;;;;;;;17.50;90.10;;;;;;5094516;28;20362;-49
2023/01/18 02:56:58;;;;;;;;;;;17.50;90.10;;;;;;5094179;28;20294;-48
2023/01/18 02:59:23;;;;;;;;;;;17.50;90.10;;;;;;5094472;28;19955;-48
2023/01/18 03:01:52;;;;;;;;;;;17.50;90.10;;;;;;5094149;28;20000;-51
2023/01/18 03:04:20;;;;;;;;;;;17.50;90.10;;;;;;5094103;28;19908;-48
2023/01/18 03:06:47;;;;;;;;;;;17.50;90.10;;;;;;5094098;28;19961;-49
2023/01/18 03:09:20;;;;;;;;;;;17.50;90.10;;;;;;5094274;28;19919;-51
2023/01/18 03:11:52;;;;;;;;;;;17.50;90.10;;;;;;5094297;28;19919;-48
2023/01/18 03:14:49;;;;;;;;;;;17.50;90.10;;;;;;5094294;28;19908;-52
2023/01/18 03:17:22;;;;;;;;;;;17.50;90.10;;;;;;5060132;28;19915;-49
2023/01/18 03:20:06;;;;;;;;;;;17.50;90.20;;;;;;5093988;28;20003;-49
2023/01/18 03:25:28;;;;;;;;;;;17.50;90.20;;;;;;5093990;28;20016;-47
2023/01/18 03:36:10;;;;;;;;;;;17.40;90.20;;;;;;5093683;28;19927;-50
2023/01/18 03:38:38;;;;;;;;;;;17.40;90.20;;;;;;5093781;28;19939;-48
2023/01/18 03:41:05;;;;;;;;;;;17.40;90.20;;;;;;5094414;28;19966;-48
2023/01/18 03:43:35;;;;;;;;;;;17.40;90.50;;;;;;5093729;28;19908;-50
2023/01/18 03:46:01;;;;;;;;;;;17.40;90.20;;;;;;5093932;28;19959;-49
2023/01/18 03:48:26;;;;;;;;;;;17.40;90.20;;;;;;5093864;28;19962;-49
2023/01/18 03:50:55;;;;;;;;;;;17.40;90.20;;;;;;5093931;28;20379;-48
2023/01/18 03:53:33;;;;;;;;;;;17.50;90.20;;;;;;5093830;28;19915;-48
2023/01/18 03:56:12;;;;;;;;;;;17.40;90.10;;;;;;5093923;28;20430;-48
2023/01/18 03:58:38;;;;;;;;;;;17.50;90.20;;;;;;5093941;28;19977;-50
2023/01/18 04:01:04;;;;;;;;;;;17.60;90.10;;;;;;5093961;28;20350;-48
2023/01/18 04:03:33;;;;;;;;;;;17.70;89.80;;;;;;5096240;28;19915;-51
2023/01/18 04:06:00;;;;;;;;;;;17.90;89.60;;;;;;5097436;28;19916;-51
2023/01/18 04:08:25;;;;;;;;;;;17.90;89.30;;;;;;5079406;28;19908;-54
2023/01/18 04:10:50;;;;;;;;;;;17.90;89.00;;;;;;5097201;28;19965;-50
2023/01/18 04:13:16;;;;;;;;;;;17.90;88.90;;;;;;5097779;28;19923;-53
2023/01/18 04:15:41;;;;;;;;;;;18.00;89.20;;;;;;5097515;28;19950;-49
2023/01/18 04:18:07;;;;;;;;;;;18.00;89.20;;;;;;5079593;28;19908;-48
2023/01/18 04:20:32;;;;;;;;;;;17.90;89.20;;;;;;5079285;28;19909;-49
2023/01/18 04:22:58;;;;;;;;;;;17.90;89.30;;;;;;5097384;28;19908;-49
2023/01/18 04:25:23;;;;;;;;;;;17.90;89.30;;;;;;5097046;28;19998;-52
2023/01/18 04:27:49;;;;;;;;;;;17.90;89.30;;;;;;5097338;28;19908;-53
2023/01/18 04:30:14;;;;;;;;;;;17.80;89.30;;;;;;5097145;28;19912;-50
2023/01/18 04:32:41;;;;;;;;;;;17.80;89.40;;;;;;5097055;28;19912;-50
2023/01/18 04:35:07;;;;;;;;;;;17.80;89.70;;;;;;5097060;28;20274;-49
2023/01/18 04:37:33;;;;;;;;;;;17.80;89.70;;;;;;5074995;28;19920;-50
2023/01/18 04:39:58;;;;;;;;;;;17.70;89.60;;;;;;5076688;28;19908;-50
2023/01/18 04:42:24;;;;;;;;;;;17.70;89.70;;;;;;5077000;28;19956;-50
2023/01/18 04:44:50;;;;;;;;;;;17.60;89.90;;;;;;5076702;28;19915;-52
2023/01/18 04:47:16;;;;;;;;;;;17.60;90.00;;;;;;5076254;28;19908;-48
2023/01/18 04:49:41;;;;;;;;;;;17.60;90.00;;;;;;5076490;28;19913;-50
2023/01/18 04:52:08;;;;;;;;;;;17.60;90.00;;;;;;5076268;28;20332;-52
2023/01/18 04:54:33;;;;;;;;;;;17.60;90.00;;;;;;5076494;28;19913;-48
2023/01/18 04:56:59;;;;;;;;;;;17.50;90.00;;;;;;5076086;28;19909;-49
2023/01/18 04:59:24;;;;;;;;;;;17.50;90.00;;;;;;5075234;28;19908;-50
2023/01/18 05:01:50;;;;;;;;;;;17.50;90.10;;;;;;5076093;28;20384;-50
2023/01/18 05:04:15;;;;;;;;;;;17.50;90.10;;;;;;5075987;28;19908;-48
2023/01/18 05:06:41;;;;;;;;;;;17.40;90.10;;;;;;5076007;28;19944;-50
2023/01/18 05:09:09;;;;;;;;;;;17.40;90.10;;;;;;5076188;28;19938;-52
2023/01/18 05:11:35;;;;;;;;;;;17.40;90.10;;;;;;5076212;28;19945;-49
2023/01/18 05:14:00;;;;;;;;;;;17.50;90.10;;;;;;5075078;28;20011;-51
2023/01/18 05:16:26;;;;;;;;;;;17.40;90.10;;;;;;5076034;28;19962;-49
2023/01/18 05:18:52;;;;;;;;;;;17.50;90.20;;;;;;5076028;28;19909;-53
2023/01/18 05:21:18;;;;;;;;;;;17.50;90.20;;;;;;5075450;28;19970;-49
2023/01/18 05:23:43;;;;;;;;;;;17.50;90.10;;;;;;5075738;28;19912;-51
2023/01/18 05:26:14;;;;;;;;;;;17.50;90.10;;;;;;5075277;28;19916;-49
2023/01/18 05:28:40;;;;;;;;;;;17.50;90.00;;;;;;5075816;28;19908;-52
2023/01/18 05:31:06;;;;;;;;;;;17.50;90.00;;;;;;5075815;28;19936;-51
2023/01/18 05:33:31;;;;;;;;;;;17.50;90.00;;;;;;5075944;28;20339;-53
2023/01/18 05:35:57;;;;;;;;;;;17.50;90.00;;;;;;5077444;28;20387;-50
2023/01/18 05:38:22;;;;;;;;;;;17.50;90.00;;;;;;5095871;28;20000;-50
2023/01/18 05:40:51;;;;;;;;;;;17.50;89.90;;;;;;5077676;28;19915;-52
2023/01/18 05:43:16;;;;;;;;;;;17.50;90.00;;;;;;5095350;28;20028;-48
2023/01/18 05:45:42;;;;;;;;;;;17.50;90.00;;;;;;5095705;28;19961;-48
2023/01/18 05:48:08;;;;;;;;;;;17.50;90.10;;;;;;5095608;28;20248;-47
2023/01/18 05:50:34;;;;;;;;;;;17.50;90.00;;;;;;5095533;28;19919;-51
2023/01/18 05:52:59;;;;;;;;;;;17.50;90.00;;;;;;5095185;28;19919;-52
2023/01/18 05:55:25;;;;;;;;;;;17.50;90.00;;;;;;5095165;28;20355;-53
2023/01/18 05:57:51;;;;;;;;;;;17.40;90.10;;;;;;5095167;28;19909;-50
2023/01/18 06:00:16;;;;;;;;;;;17.40;90.10;;;;;;5095306;28;20389;-51
2023/01/18 06:02:42;;;;;;;;;;;17.40;90.10;;;;;;5077169;28;19908;-47
2023/01/18 06:05:08;;;;;;;;;;;17.40;90.10;;;;;;5095179;28;19955;-51
2023/01/18 06:07:33;;;;;;;;;;;17.30;90.20;;;;;;5076808;28;19913;-52
2023/01/18 06:09:58;;;;;;;;;;;17.30;90.20;;;;;;5095073;28;19912;-52
2023/01/18 06:12:24;;;;;;;;;;;17.30;90.20;;;;;;5095111;28;19919;-53
2023/01/18 06:14:50;;;;;;;;;;;17.30;90.20;;;;;;5094727;28;20366;-49
2023/01/18 06:17:15;;;;;;;;;;;17.30;90.30;;;;;;5076810;28;19970;-53
2023/01/18 06:19:41;;;;;;;;;;;17.30;90.20;;;;;;5094931;28;19916;-52
2023/01/18 06:22:06;;;;;;;;;;;17.30;90.30;;;;;;5094914;28;19947;-49
2023/01/18 06:24:32;;;;;;;;;;;17.30;90.30;;;;;;5094535;28;20346;-52
2023/01/18 06:26:58;;;;;;;;;;;17.40;90.30;;;;;;5094465;28;19931;-50
2023/01/18 06:29:23;;;;;;;;;;;17.40;90.30;;;;;;5094449;28;20285;-52
2023/01/18 06:31:48;;;;;;;;;;;17.40;90.20;;;;;;5094724;28;19919;-49
2023/01/18 06:34:14;;;;;;;;;;;17.50;90.20;;;;;;5094575;28;19953;-49
2023/01/18 06:36:39;;;;;;;;;;;17.60;90.00;;;;;;5094209;28;19965;-51
2023/01/18 06:39:05;;;;;;;;;;;17.60;90.00;;;;;;5094333;28;19908;-49
2023/01/18 06:41:31;;;;;;;;;;;17.60;90.00;;;;;;5076141;28;19908;-49
2023/01/18 06:43:56;;;;;;;;;;;17.60;90.00;;;;;;5076202;28;19914;-52
2023/01/18 06:46:22;;;;;;;;;;;17.60;90.00;;;;;;5094108;28;19941;-50
2023/01/18 06:48:47;;;;;;;;;;;17.60;89.90;;;;;;5093861;28;20262;-49
2023/01/18 06:51:13;;;;;;;;;;;17.60;89.90;;;;;;5093838;28;19965;-51
2023/01/18 06:53:38;;;;;;;;;;;17.60;90.00;;;;;;5094006;28;19908;-51
2023/01/18 06:56:08;;;;;;;;;;;17.50;90.00;;;;;;5075906;28;19912;-52
2023/01/18 06:58:34;;;;;;;;;;;17.50;90.00;;;;;;5075785;28;20045;-53
2023/01/18 07:01:00;;;;;;;;;;;17.50;90.00;;;;;;5091903;28;20010;-53
2023/01/18 07:03:26;;;;;;;;;;;17.50;90.10;;;;;;5093626;28;19915;-52
2023/01/18 07:05:52;;;;;;;;;;;17.50;90.10;;;;;;5097526;28;19912;-51
2023/01/18 07:08:19;;;;;;;;;;;17.50;90.10;;;;;;5093721;28;20004;-52
2023/01/18 07:10:45;;;;;;;;;;;17.50;90.10;;;;;;5092674;28;19912;-54
2023/01/18 07:13:11;;;;;;;;;;;17.50;90.10;;;;;;5093087;28;19916;-50
2023/01/18 07:15:36;;;;;;;;;;;17.40;90.10;;;;;;5092416;28;19916;-50
2023/01/18 07:18:02;;;;;;;;;;;17.50;90.10;;;;;;5077186;28;19908;-53
2023/01/18 07:20:28;;;;;;;;;;;17.50;90.10;;;;;;5092547;28;20418;-50
2023/01/18 07:22:54;;;;;;;;;;;17.40;90.10;;;;;;5093052;28;20007;-52
2023/01/18 07:25:19;;;;;;;;;;;17.50;90.10;;;;;;5103663;28;20008;-48
2023/01/18 07:27:47;;;;;;;;;;;17.50;90.20;;;;;;5109879;28;19949;-49
2023/01/18 07:30:13;;;;;;;;;;;17.50;90.20;;;;;;5096798;28;19935;-55
2023/01/18 07:32:38;;;;;;;;;;;17.50;90.20;;;;;;5092840;28;19992;-51
2023/01/18 07:35:04;;;;;;;;;;;17.50;90.20;;;;;;5082470;28;19916;-50
2023/01/18 07:37:30;;;;;;;;;;;17.50;90.20;;;;;;5100777;28;19946;-51
2023/01/18 07:39:55;;;;;;;;;;;17.50;89.90;;;;;;5092292;28;19931;-53
2023/01/18 07:42:21;;;;;;;;;;;17.40;90.10;;;;;;5089428;28;20011;-53
2023/01/18 07:44:46;;;;;;;;;;;17.40;90.20;;;;;;5101987;28;20423;-53
2023/01/18 07:47:11;;;;;;;;;;;17.40;90.20;;;;;;5082208;28;19998;-49
2023/01/18 07:49:37;;;;;;;;;;;17.40;87.10;;;;;;5096640;28;19912;-66
2023/01/18 07:52:02;;;;;;;;;;;17.40;89.10;;;;;;5097031;28;20324;-64
2023/01/18 07:54:28;;;;;;;;;;;17.40;89.90;;;;;;5091328;28;19908;-63
2023/01/18 07:56:53;;;;;;;;;;;17.40;90.00;;;;;;5095754;28;20010;-63
2023/01/18 07:59:19;;;;;;;;;;;17.40;90.00;;;;;;5097808;28;20365;-63
2023/01/18 08:01:44;;;;;;;;;;;17.40;90.10;;;;;;5103789;28;19942;-66
2023/01/18 08:04:10;;;;;;;;;;;17.40;90.10;;;;;;5105527;28;20029;-68
2023/01/18 08:06:36;;;;;;;;;;;17.40;90.10;;;;;;5099993;28;19915;-64
2023/01/18 08:09:01;;;;;;;;;;;17.40;90.10;;;;;;5082044;28;19912;-66
2023/01/18 08:11:27;;;;;;;;;;;17.40;90.20;;;;;;5105236;28;19912;-72
2023/01/18 08:13:52;;;;;;;;;;;17.40;90.00;;;;;;5095700;28;19912;-72
2023/01/18 08:16:18;;;;;;;;;;;17.50;90.10;;;;;;5096212;28;20381;-72
2023/01/18 08:18:44;;;;;;;;;;;17.50;90.10;;;;;;5096054;28;19915;-69
2023/01/18 08:21:11;;;;;;;;;;;17.50;90.10;;;;;;5093067;28;19913;-65
2023/01/18 08:23:38;;;;;;;;;;;17.50;89.90;;;;;;5069435;28;20382;-69
2023/01/18 08:26:04;;;;;;;;;;;17.60;90.00;;;;;;5076909;28;19951;-66
2023/01/18 08:28:29;;;;;;;;;;;17.50;90.00;;;;;;5093204;28;20047;-64
2023/01/18 08:31:04;;;;;;;;;;;17.50;90.00;;;;;;5097038;28;19912;-61
2023/01/18 08:33:29;;;;;;;;;;;17.60;90.10;;;;;;5076580;28;19912;-68
2023/01/18 08:35:55;;;;;;;;;;;17.50;90.10;;;;;;5076639;28;19932;-63
2023/01/18 08:38:20;;;;;;;;;;;17.50;90.10;;;;;;5106407;28;19951;-64
2023/01/18 08:40:46;;;;;;;;;;;17.50;90.10;;;;;;5099588;28;19908;-63
2023/01/18 08:43:11;;;;;;;;;;;17.50;90.10;;;;;;5097040;28;19937;-61
2023/01/18 08:45:37;;;;;;;;;;;17.50;90.10;;;;;;5096784;28;19916;-62
2023/01/18 08:48:04;;;;;;;;;;;17.50;90.10;;;;;;5096859;28;19970;-64
2023/01/18 08:50:30;;;;;;;;;;;17.50;90.10;;;;;;5096453;28;19920;-62
2023/01/18 08:52:58;;;;;;;;;;;17.50;90.20;;;;;;5096878;28;19955;-63
2023/01/18 08:55:24;;;;;;;;;;;17.50;90.20;;;;;;5096527;28;20283;-64
2023/01/18 08:57:52;;;;;;;;;;;17.50;90.20;;;;;;5078095;28;19998;-64
2023/01/18 09:00:18;;;;;;;;;;;17.50;90.20;;;;;;5096336;28;19908;-64
2023/01/18 09:02:43;;;;;;;;;;;17.50;90.20;;;;;;5096245;28;19919;-66
2023/01/18 09:05:09;;;;;;;;;;;17.50;90.20;;;;;;5096183;28;20338;-66
2023/01/18 09:07:34;;;;;;;;;;;17.50;90.20;;;;;;5096468;28;19911;-66
2023/01/18 09:10:00;;;;;;;;;;;17.50;90.20;;;;;;5096168;28;20351;-65
2023/01/18 09:12:25;;;;;;;;;;;17.50;90.20;;;;;;5096653;28;19916;-62
2023/01/18 09:14:50;;;;;;;;;;;17.50;90.10;;;;;;5095901;28;19915;-64
2023/01/18 09:17:20;;;;;;;;;;;17.50;90.20;;;;;;5096044;28;20376;-62
2023/01/18 09:19:45;;;;;;;;;;;17.50;90.20;;;;;;5077731;28;19915;-66
2023/01/18 09:22:11;;;;;;;;;;;17.50;90.10;;;;;;5096111;28;19908;-63
2023/01/18 09:24:36;;;;;;;;;;;17.60;90.10;;;;;;5095947;28;19940;-62
2023/01/18 09:27:03;;;;;;;;;;;17.50;90.10;;;;;;5095856;28;19961;-64
2023/01/18 09:29:29;;;;;;;;;;;17.60;90.10;;;;;;5105067;28;19916;-64
2023/01/18 09:31:55;;;;;;;;;;;17.60;90.10;;;;;;5116340;28;19983;-62
2023/01/18 09:34:21;;;;;;;;;;;17.60;90.10;;;;;;5116643;28;19908;-64
2023/01/18 09:36:50;;;;;;;;;;;17.70;90.10;;;;;;5114743;28;19919;-61
2023/01/18 09:39:16;;;;;;;;;;;17.70;90.00;;;;;;5111851;28;19919;-60
2023/01/18 09:41:43;;;;;;;;;;;17.70;90.00;;;;;;5095848;28;19908;-64
2023/01/18 09:44:16;;;;;;;;;;;17.70;90.00;;;;;;5095930;28;19911;-64
2023/01/18 09:46:43;;;;;;;;;;;17.70;89.90;;;;;;5114867;28;20011;-63
2023/01/18 09:49:14;;;;;;;;;;;17.70;90.00;;;;;;5115814;28;19914;-61
2023/01/18 09:51:59;;;;;;;;;;;17.70;90.00;;;;;;5115873;28;20002;-63
2023/01/18 09:54:36;;;;;;;;;;;17.60;90.00;;;;;;5098705;28;19919;-64
2023/01/18 09:57:05;;;;;;;;;;;17.60;90.00;;;;;;5077000;28;19944;-65
2023/01/18 09:59:41;;;;;;;;;;;17.60;90.00;;;;;;5095352;28;19908;-65
2023/01/18 10:02:15;;;;;;;;;;;17.60;90.00;;;;;;5094689;28;19915;-63
2023/01/18 10:04:43;;;;;;;;;;;17.60;90.00;;;;;;5106054;28;19911;-66
2023/01/18 10:07:15;;;;;;;;;;;17.60;89.90;;;;;;5115503;28;19910;-65
2023/01/18 10:09:43;;;;;;;;;;;17.60;90.00;;;;;;5115294;28;19955;-63
2023/01/18 10:12:27;;;;;;;;;;;17.60;90.00;;;;;;5101926;28;19951;-65
2023/01/18 10:15:19;;;;;;;;;;;17.50;89.90;;;;;;5094591;28;20314;-46
2023/01/18 10:17:45;;;;;;;;;;;17.60;90.00;;;;;;5071200;28;20211;-47
2023/01/18 10:20:46;;;;;;;;;;;17.60;89.90;;;;;;5074703;28;20313;-49
2023/01/18 10:23:23;;;;;;;;;;;17.60;89.90;;;;;;5013075;28;19910;-49
2023/01/18 10:26:02;;;;;;;;;;;17.70;89.90;;;;;;5066249;28;20281;-50
2023/01/18 10:28:47;;;;;;;;;;;17.80;89.80;;;;;;5074553;28;19916;-53
2023/01/18 10:31:16;;;;;;;;;;;17.90;89.50;;;;;;5100378;28;19920;-54
2023/01/18 10:33:42;;;;;;;;;;;18.00;89.20;;;;;;5094674;28;19909;-47
2023/01/18 10:36:17;;;;;;;;;;;18.20;89.00;;;;;;5094288;28;19920;-49
2023/01/18 10:38:43;;;;;;;;;;;18.30;88.60;;;;;;5112448;28;20277;-47
2023/01/18 10:41:26;;;;;;;;;;;18.50;88.10;;;;;;5114549;28;19994;-54
2023/01/18 10:43:52;;;;;;;;;;;18.60;87.80;;;;;;5114925;28;20412;-47
2023/01/18 10:46:18;;;;;;;;;;;18.70;87.40;;;;;;5104977;28;19912;-50
2023/01/18 10:48:53;;;;;;;;;;;18.90;87.20;;;;;;5093928;28;19919;-50
2023/01/18 10:51:24;;;;;;;;;;;18.90;86.90;;;;;;5094392;28;19916;-52
2023/01/18 10:53:50;;;;;;;;;;;19.00;86.70;;;;;;5094448;28;19908;-49
2023/01/18 10:56:17;;;;;;;;;;;19.10;86.50;;;;;;5094388;28;19912;-52
2023/01/18 10:58:44;;;;;;;;;;;19.10;86.60;;;;;;5094156;28;19908;-51
2023/01/18 11:01:18;;;;;;;;;;;19.10;86.20;;;;;;5094119;28;19908;-50
2023/01/18 11:03:51;;;;;;;;;;;19.20;86.30;;;;;;5094700;28;19943;-49
2023/01/18 11:06:19;;;;;;;;;;;19.20;86.10;;;;;;5094319;28;19915;-50
2023/01/18 11:08:45;;;;;;;;;;;19.20;86.20;;;;;;5081777;28;19999;-50
2023/01/18 11:11:16;;;;;;;;;;;19.20;85.40;;;;;;5093068;28;20342;-48
2023/01/18 11:13:46;;;;;;;;;;;19.20;86.60;;;;;;5093831;28;19908;-49
2023/01/18 11:16:16;;;;;;;;;;;19.20;86.20;;;;;;5094436;28;19954;-48
2023/01/18 11:19:18;;;;;;;;;;;19.10;86.30;;;;;;5098449;28;19912;-50
2023/01/18 11:21:45;;;;;;;;;;;19.10;85.80;;;;;;5008386;28;19918;-48
2023/01/18 11:24:15;;;;;;;;;;;19.10;86.40;;;;;;5070875;28;19908;-50
2023/01/18 11:26:50;;;;;;;;;;;19.00;86.60;;;;;;5108585;28;20041;-50
2023/01/18 11:29:15;;;;;;;;;;;19.00;86.70;;;;;;5093891;28;19962;-48
2023/01/18 11:31:44;;;;;;;;;;;18.90;86.70;;;;;;5100150;28;19947;-52
2023/01/18 11:34:20;;;;;;;;;;;18.90;86.80;;;;;;5114068;28;19904;-52
2023/01/18 11:36:45;;;;;;;;;;;19.00;87.00;;;;;;5112367;28;19923;-52
2023/01/18 11:39:20;;;;;;;;;;;19.00;86.90;;;;;;5098144;28;19908;-48
2023/01/18 11:41:47;;;;;;;;;;;19.00;86.90;;;;;;5096032;28;19911;-53
2023/01/18 11:44:16;;;;;;;;;;;19.00;86.90;;;;;;5095924;28;19904;-52
2023/01/18 11:46:43;;;;;;;;;;;19.00;87.00;;;;;;5114527;28;20342;-48
2023/01/18 11:49:27;;;;;;;;;;;19.00;86.90;;;;;;5104035;28;20097;-48
2023/01/18 11:52:22;;;;;;;;;;;19.10;86.80;;;;;;5093855;28;19915;-49
2023/01/18 11:54:51;;;;;;;;;;;19.00;87.10;;;;;;5080008;28;20341;-51
2023/01/18 11:57:18;;;;;;;;;;;19.10;87.00;;;;;;5099923;28;19908;-49
2023/01/18 11:59:44;;;;;;;;;;;19.10;87.00;;;;;;5113855;28;19904;-47
2023/01/18 12:02:22;;;;;;;;;;;19.10;87.10;;;;;;5114091;28;20006;-50
2023/01/18 12:04:47;;;;;;;;;;;19.10;87.10;;;;;;5097289;28;19908;-46
2023/01/18 12:07:31;;;;;;;;;;;19.20;86.90;;;;;;5093248;28;19961;-47
2023/01/18 12:09:59;;;;;;;;;;;19.20;86.90;;;;;;5093132;28;19999;-50
2023/01/18 12:12:46;;;;;;;;;;;19.20;87.10;;;;;;5107105;28;20273;-48
2023/01/18 12:15:15;;;;;;;;;;;19.10;87.00;;;;;;5075330;28;19904;-49
2023/01/18 12:17:47;;;;;;;;;;;19.10;86.90;;;;;;5111754;28;19922;-47
2023/01/18 12:20:17;;;;;;;;;;;19.20;87.10;;;;;;5114148;28;20006;-50
2023/01/18 12:22:46;;;;;;;;;;;19.10;86.90;;;;;;5102182;28;19958;-47
2023/01/18 12:25:30;;;;;;;;;;;19.20;86.90;;;;;;5096817;28;19907;-48
2023/01/18 12:28:14;;;;;;;;;;;19.20;87.10;;;;;;5096845;28;19904;-48
2023/01/18 12:30:45;;;;;;;;;;;19.20;87.10;;;;;;5107239;28;19915;-50
2023/01/18 12:33:15;;;;;;;;;;;19.20;86.70;;;;;;5094568;28;19916;-47
2023/01/18 12:36:03;;;;;;;;;;;19.20;86.80;;;;;;5112693;28;19912;-48
2023/01/18 12:38:30;;;;;;;;;;;19.30;87.00;;;;;;5104484;28;20112;-50
2023/01/18 12:41:14;;;;;;;;;;;19.20;86.90;;;;;;5095473;28;19908;-49
2023/01/18 12:43:54;;;;;;;;;;;19.20;86.90;;;;;;5094414;28;19919;-49
2023/01/18 12:46:27;;;;;;;;;;;19.20;86.70;;;;;;5093336;28;20138;-50
2023/01/18 12:48:59;;;;;;;;;;;19.20;86.80;;;;;;5096632;28;19912;-49
2023/01/18 12:51:27;;;;;;;;;;;19.20;86.80;;;;;;5094605;28;20053;-48
2023/01/18 12:53:58;;;;;;;;;;;19.20;86.60;;;;;;5094939;28;19908;-45
2023/01/18 12:56:40;;;;;;;;;;;19.20;86.70;;;;;;5096259;28;19951;-45
2023/01/18 12:59:18;;;;;;;;;;;19.20;86.60;;;;;;5096644;28;19980;-45
2023/01/18 13:01:50;;;;;;;;;;;19.20;86.60;;;;;;5097792;28;19908;-50
2023/01/18 13:04:35;;;;;;;;;;;19.20;86.60;;;;;;5100186;28;20002;-49
2023/01/18 13:07:05;;;;;;;;;;;19.30;86.40;;;;;;5097188;28;19924;-48
2023/01/18 13:09:36;;;;;;;;;;;19.30;86.60;;;;;;5099424;28;20023;-47
2023/01/18 13:12:02;;;;;;;;;;;19.30;87.10;;;;;;5094999;28;19944;-49
2023/01/18 13:14:32;;;;;;;;;;;19.30;86.70;;;;;;5093300;28;19912;-47
2023/01/18 13:16:57;;;;;;;;;;;19.30;86.80;;;;;;5095818;28;19908;-46
2023/01/18 13:19:29;;;;;;;;;;;19.30;87.00;;;;;;5096305;28;20301;-48
2023/01/18 13:22:21;;;;;;;;;;;19.30;86.90;;;;;;5095482;28;20018;-46
2023/01/18 13:24:52;;;;;;;;;;;19.30;86.80;;;;;;5072199;28;19919;-50
2023/01/18 13:27:18;;;;;;;;;;;19.30;87.00;;;;;;5095709;28;19908;-51
2023/01/18 13:29:44;;;;;;;;;;;19.30;86.90;;;;;;5095292;28;20038;-48
2023/01/18 13:32:22;;;;;;;;;;;19.20;87.10;;;;;;5078114;28;20336;-46
2023/01/18 13:34:55;;;;;;;;;;;19.30;87.10;;;;;;5074489;28;19908;-50
2023/01/18 13:37:35;;;;;;;;;;;19.30;87.20;;;;;;5083526;28;19974;-53
2023/01/18 13:40:01;;;;;;;;;;;19.30;87.20;;;;;;5086586;28;19957;-46
2023/01/18 13:42:32;;;;;;;;;;;19.30;87.20;;;;;;5116149;28;19911;-50
2023/01/18 13:45:13;;;;;;;;;;;19.30;87.30;;;;;;5115710;28;19914;-50
2023/01/18 13:47:41;;;;;;;;;;;19.20;87.30;;;;;;5113649;28;19907;-50
2023/01/18 13:50:25;;;;;;;;;;;19.20;87.10;;;;;;5095143;28;19962;-48
2023/01/18 13:53:11;;;;;;;;;;;19.20;87.10;;;;;;5095304;28;19912;-49
2023/01/18 13:55:36;;;;;;;;;;;19.20;87.20;;;;;;5079907;28;19915;-47
2023/01/18 13:58:02;;;;;;;;;;;19.30;87.30;;;;;;5095443;28;19965;-47
2023/01/18 14:00:27;;;;;;;;;;;19.30;87.40;;;;;;5095438;28;19908;-49
2023/01/18 14:03:02;;;;;;;;;;;19.30;87.50;;;;;;5115409;28;20385;-49
2023/01/18 14:05:29;;;;;;;;;;;19.30;87.30;;;;;;5115294;28;19914;-50
2023/01/18 14:07:56;;;;;;;;;;;19.30;87.20;;;;;;5115400;28;19908;-52
2023/01/18 14:10:29;;;;;;;;;;;19.30;87.30;;;;;;5101332;28;19926;-52
2023/01/18 14:12:55;;;;;;;;;;;19.30;87.30;;;;;;5095005;28;19924;-51
2023/01/18 14:15:41;;;;;;;;;;;19.30;87.40;;;;;;5094880;28;19908;-49
2023/01/18 14:18:23;;;;;;;;;;;19.30;87.40;;;;;;5103308;28;19912;-47
2023/01/18 14:21:07;;;;;;;;;;;19.30;87.30;;;;;;5115352;28;20009;-45
2023/01/18 14:23:51;;;;;;;;;;;19.40;87.30;;;;;;5112663;28;19920;-51
2023/01/18 14:26:18;;;;;;;;;;;19.30;87.40;;;;;;5079956;28;20321;-51
2023/01/18 14:28:46;;;;;;;;;;;19.30;87.20;;;;;;5093708;28;19916;-48
2023/01/18 14:31:15;;;;;;;;;;;19.40;87.20;;;;;;5101959;28;19927;-51
2023/01/18 14:33:41;;;;;;;;;;;19.40;87.10;;;;;;5081240;28;19908;-48
2023/01/18 14:36:17;;;;;;;;;;;19.30;87.10;;;;;;5094289;28;19927;-49
2023/01/18 14:38:42;;;;;;;;;;;19.30;87.20;;;;;;5100162;28;19908;-51
2023/01/18 14:41:11;;;;;;;;;;;19.30;87.20;;;;;;5094133;28;19915;-46
2023/01/18 14:43:41;;;;;;;;;;;19.30;87.20;;;;;;5094259;28;19912;-47
2023/01/18 14:46:15;;;;;;;;;;;19.30;87.20;;;;;;5101332;28;19918;-49
2023/01/18 14:48:50;;;;;;;;;;;19.30;87.00;;;;;;5114694;28;19908;-48
2023/01/18 14:51:21;;;;;;;;;;;19.30;87.30;;;;;;5098924;28;19920;-46
2023/01/18 14:53:49;;;;;;;;;;;19.30;87.30;;;;;;5110550;28;19919;-47
2023/01/18 14:56:17;;;;;;;;;;;19.20;87.40;;;;;;5114555;28;19911;-47
2023/01/18 14:58:51;;;;;;;;;;;19.30;87.40;;;;;;5114296;28;20286;-47
2023/01/18 15:01:25;;;;;;;;;;;19.30;87.30;;;;;;5114420;28;19908;-50
2023/01/18 15:03:54;;;;;;;;;;;19.30;87.40;;;;;;5097803;28;19908;-51